Time;durP1;ratioP1;P1;durP2;ratioP2;P2;SDS_P1;SDS_P2;PMS_P1;PMS_P2;Temp;Humidity;BMP_temperature;BMP_pressure;BME280_temperature;BME280_humidity;BME280_pressure;Samples;Min_cycle;Max_cycle;Signal;HPM_P1;HPM_P2
2024/01/21 00:02:26;;;;;;;43.13;23.55;;;;;;;-6.29;75.76;102024.13;5055239;28;20407;-70
2024/01/21 00:05:40;;;;;;;39.70;21.38;;;;;;;-6.33;76.23;102024.81;5055458;28;20051;-70
2024/01/21 00:08:55;;;;;;;40.17;23.65;;;;;;;-6.29;76.51;102021.56;5055363;28;20128;-70
2024/01/21 00:12:13;;;;;;;39.80;22.08;;;;;;;-6.31;77.02;102025.75;5055075;28;20103;-70
2024/01/21 00:15:35;;;;;;;42.33;23.95;;;;;;;-6.24;76.85;102014.13;5055072;28;20102;-70
2024/01/21 00:18:47;;;;;;;;;;;;;;;-6.16;76.46;102007.66;5055628;28;20121;-69
2024/01/21 00:22:00;;;;;;;43.95;23.17;;;;;;;-6.23;76.50;102011.63;5055082;28;19919;-70
2024/01/21 00:25:12;;;;;;;42.78;22.83;;;;;;;-6.49;76.62;102022.44;5054856;28;20572;-69
2024/01/21 00:28:18;;;;;;;37.63;22.30;;;;;;;-6.46;77.30;102008.16;5054282;28;20617;-70
2024/01/21 00:31:21;;;;;;;41.38;20.65;;;;;;;-6.41;77.11;101991.44;5054691;28;20602;-70
2024/01/21 00:34:35;;;;;;;;;;;;;;;-6.41;77.02;101996.53;5055173;28;20044;-70
2024/01/21 00:38:02;;;;;;;35.38;20.60;;;;;;;-6.41;76.62;101986.34;5054599;28;19919;-69
2024/01/21 00:41:20;;;;;;;;;;;;;;;-6.43;76.53;101980.31;5054913;28;20501;-70
2024/01/21 00:44:31;;;;;;;37.80;21.73;;;;;;;-6.37;75.55;101988.19;5054558;28;19919;-69
2024/01/21 00:47:54;;;;;;;38.90;21.73;;;;;;;-6.51;76.10;101988.44;5054252;28;20043;-70
2024/01/21 00:51:20;;;;;;;38.63;22.17;;;;;;;-6.46;76.00;101977.63;5054346;28;20048;-69
2024/01/21 00:54:44;;;;;;;40.65;23.02;;;;;;;-6.37;76.30;101974.59;5054148;28;20310;-69
2024/01/21 00:58:02;;;;;;;;;;;;;;;-6.51;75.72;101983.34;5054643;28;20048;-70
2024/01/21 01:01:16;;;;;;;;;;;;;;;-6.45;75.89;101978.50;5054687;28;20289;-67
2024/01/21 01:04:27;;;;;;;36.13;20.92;;;;;;;-6.50;75.88;101970.69;5053140;28;19920;-66
2024/01/21 01:07:52;;;;;;;36.97;20.47;;;;;;;-6.53;75.34;101974.78;5054028;28;20182;-66
2024/01/21 01:11:20;;;;;;;37.97;21.37;;;;;;;-6.53;75.42;101970.56;5053931;28;20063;-69
2024/01/21 01:15:00;;;;;;;28.77;16.83;;;;;;;-6.44;75.03;101977.72;5054216;28;20086;-70
2024/01/21 01:18:19;;;;;;;36.77;20.70;;;;;;;-6.68;74.36;101975.03;5054072;28;20266;-69
2024/01/21 01:21:31;;;;;;;33.88;21.92;;;;;;;-6.68;75.26;101969.94;5053773;28;20501;-69
2024/01/21 01:24:55;;;;;;;36.37;20.57;;;;;;;-6.61;75.36;101967.69;5053757;28;20095;-69
2024/01/21 01:28:18;;;;;;;38.77;20.70;;;;;;;-6.58;75.00;101964.41;5053650;28;20128;-69
2024/01/21 01:31:44;;;;;;;38.53;21.37;;;;;;;-6.85;74.41;101952.31;5053495;28;20186;-69
2024/01/21 01:35:11;;;;;;;37.13;21.77;;;;;;;-6.70;73.49;101951.19;5053512;28;20116;-69
2024/01/21 01:38:42;;;;;;;34.73;20.43;;;;;;;-6.72;73.40;101938.41;5053516;28;20043;-69
2024/01/21 01:42:01;;;;;;;33.47;19.60;;;;;;;-6.89;73.52;101945.38;5053666;28;20120;-69
2024/01/21 01:45:17;;;;;;;40.00;20.93;;;;;;;-6.87;73.38;101938.66;5053369;28;20055;-69
2024/01/21 01:48:23;;;;;;;41.30;21.97;;;;;;;-6.89;72.80;101935.19;5053255;28;20509;-69
2024/01/21 01:51:41;;;;;;;40.30;22.40;;;;;;;-6.94;72.50;101921.41;5053203;28;20094;-69
2024/01/21 01:55:10;;;;;;;41.80;21.93;;;;;;;-6.90;73.14;101907.16;5051281;28;20419;-69
2024/01/21 01:58:19;;;;;;;35.10;20.87;;;;;;;-6.91;72.69;101903.75;5053392;28;20079;-69
2024/01/21 02:01:39;;;;;;;39.03;21.57;;;;;;;-7.12;72.80;101900.31;5052986;28;20485;-69
2024/01/21 02:04:55;;;;;;;39.33;22.37;;;;;;;-7.25;73.26;101894.69;5053081;28;20098;-69
2024/01/21 02:08:20;;;;;;;35.23;21.43;;;;;;;-7.06;73.52;101891.25;5053001;28;20121;-69
2024/01/21 02:11:37;;;;;;;38.90;21.97;;;;;;;-7.10;72.44;101886.84;5052874;28;20055;-69
2024/01/21 02:14:42;;;;;;;37.57;21.17;;;;;;;-7.25;73.04;101870.97;5052570;28;20107;-69
2024/01/21 02:18:05;;;;;;;36.47;21.37;;;;;;;-7.18;72.95;101874.63;5052764;28;20065;-69
2024/01/21 02:21:36;;;;;;;36.63;19.60;;;;;;;-7.17;72.75;101871.31;5052726;28;20620;-69
2024/01/21 02:24:50;;;;;;;36.23;20.70;;;;;;;-7.11;72.76;101861.38;5053018;28;20044;-69
2024/01/21 02:28:02;;;;;;;34.63;19.70;;;;;;;-7.15;72.74;101859.50;5052660;28;20055;-69
2024/01/21 02:31:20;;;;;;;36.67;19.73;;;;;;;-7.18;72.11;101850.06;5052878;28;20052;-69
2024/01/21 02:34:48;;;;;;;37.17;21.30;;;;;;;-7.35;72.56;101854.47;5052916;28;20394;-69
2024/01/21 02:38:14;;;;;;;33.50;19.40;;;;;;;-7.40;72.59;101843.25;5052578;28;20144;-69
2024/01/21 02:41:35;;;;;;;37.67;20.47;;;;;;;-7.43;72.77;101842.25;5052416;28;20473;-69
2024/01/21 02:44:43;;;;;;;39.57;21.43;;;;;;;-7.46;73.61;101843.00;5052497;28;20048;-69
2024/01/21 02:48:00;;;;;;;42.70;21.03;;;;;;;-7.54;73.08;101829.09;5052743;28;20087;-69
2024/01/21 02:51:24;;;;;;;40.37;20.27;;;;;;;-7.48;73.58;101836.97;5052475;28;20410;-69
2024/01/21 02:54:43;;;;;;;37.57;21.33;;;;;;;-7.46;73.65;101831.97;5052296;28;20521;-68
2024/01/21 02:57:57;;;;;;;33.25;17.92;;;;;;;-7.38;73.41;101826.38;5052466;28;20517;-69
2024/01/21 03:01:11;;;;;;;36.60;21.33;;;;;;;-7.47;72.21;101823.47;5051603;28;20048;-68
2024/01/21 03:04:41;;;;;;;40.63;22.17;;;;;;;-7.51;72.88;101826.69;5052318;28;20114;-68
2024/01/21 03:07:55;;;;;;;37.77;20.80;;;;;;;-7.56;73.62;101821.44;5052577;28;20075;-68
2024/01/21 03:11:04;;;;;;;36.33;21.70;;;;;;;-7.66;74.12;101823.50;5052350;28;20048;-68
2024/01/21 03:14:25;;;;;;;38.73;20.87;;;;;;;-7.82;74.26;101817.75;5052299;28;20044;-68
2024/01/21 03:17:51;;;;;;;37.33;20.70;;;;;;;-7.76;74.12;101823.09;5052198;28;20083;-69
2024/01/21 03:21:18;;;;;;;37.03;19.87;;;;;;;-7.78;74.44;101816.25;5052153;28;20051;-69
2024/01/21 03:24:31;;;;;;;35.78;20.45;;;;;;;-7.91;75.22;101806.34;5051886;28;20044;-69
2024/01/21 03:27:46;;;;;;;39.20;20.53;;;;;;;-7.82;74.22;101809.28;5054322;28;20050;-69
2024/01/21 03:31:12;;;;;;;39.10;20.77;;;;;;;-7.88;74.61;101802.28;5055819;28;20414;-69
2024/01/21 03:34:46;;;;;;;38.50;21.83;;;;;;;-7.67;74.39;101806.53;5055825;28;20126;-69
2024/01/21 03:38:15;;;;;;;37.30;19.93;;;;;;;-7.66;74.86;101800.63;5055778;28;20075;-69
2024/01/21 03:41:33;;;;;;;39.80;22.00;;;;;;;-7.62;74.18;101797.44;5055713;28;20094;-69
2024/01/21 03:44:43;;;;;;;36.77;19.37;;;;;;;-7.48;73.71;101801.41;5055646;28;20067;-69
2024/01/21 03:48:04;;;;;;;38.23;21.80;;;;;;;-7.58;73.73;101801.84;5055538;28;20418;-69
2024/01/21 03:51:22;;;;;;;36.50;20.03;;;;;;;-7.67;74.27;101804.00;5055499;28;20084;-69
2024/01/21 03:54:29;;;;;;;34.23;19.03;;;;;;;-7.63;74.96;101794.00;5055287;28;20110;-69
2024/01/21 03:57:47;;;;;;;34.70;20.73;;;;;;;-7.57;73.79;101786.66;5055365;28;20059;-69
2024/01/21 04:01:14;;;;;;;35.43;20.23;;;;;;;-7.51;73.78;101791.13;5055364;28;20047;-69
2024/01/21 04:04:32;;;;;;;35.67;19.47;;;;;;;-7.62;74.44;101797.44;5055539;28;20616;-69
2024/01/21 04:07:54;;;;;;;35.75;19.02;;;;;;;-7.60;74.55;101803.44;5055480;28;20101;-69
2024/01/21 04:11:27;;;;;;;36.03;19.67;;;;;;;-7.46;73.66;101809.97;5055144;28;20047;-69
2024/01/21 04:14:40;;;;;;;34.67;19.13;;;;;;;-7.63;73.46;101814.31;5055077;28;20128;-69
2024/01/21 04:17:53;;;;;;;36.03;21.30;;;;;;;-7.55;73.30;101818.06;5054875;28;20052;-69
2024/01/21 04:21:12;;;;;;;34.53;19.50;;;;;;;-7.62;73.85;101812.69;5054971;28;20039;-69
2024/01/21 04:24:30;;;;;;;32.83;18.80;;;;;;;-7.71;73.67;101805.53;5054964;28;20701;-69
2024/01/21 04:27:58;;;;;;;39.40;20.90;;;;;;;-7.79;74.15;101817.88;5054814;28;20052;-69
2024/01/21 04:31:22;;;;;;;39.30;20.43;;;;;;;-7.78;73.46;101812.03;5054980;28;20182;-69
2024/01/21 04:34:53;;;;;;;39.03;19.97;;;;;;;-7.88;73.31;101811.53;5054976;28;20051;-69
2024/01/21 04:38:11;;;;;;;;;;;;;;;-7.88;73.40;101812.44;5055146;28;20043;-69
2024/01/21 04:41:32;;;;;;;31.80;18.13;;;;;;;-7.95;72.93;101816.34;5054892;28;20025;-69
2024/01/21 04:44:55;;;;;;;41.70;23.03;;;;;;;-8.04;73.33;101810.91;5054556;28;20437;-69
2024/01/21 04:48:12;;;;;;;35.73;18.80;;;;;;;-8.06;73.41;101821.78;5054374;28;20219;-69
2024/01/21 04:51:28;;;;;;;37.60;20.13;;;;;;;-8.02;73.59;101818.56;5054479;28;20048;-69
2024/01/21 04:54:37;;;;;;;38.67;21.37;;;;;;;-8.07;73.32;101799.72;5054122;28;20060;-69
2024/01/21 04:57:40;;;;;;;36.22;19.73;;;;;;;-8.01;73.36;101795.81;5053325;28;20558;-69
2024/01/21 05:01:00;;;;;;;38.70;19.57;;;;;;;-8.10;73.23;101791.97;5037745;28;20179;-68
2024/01/21 05:04:17;;;;;;;36.87;19.07;;;;;;;-8.02;73.38;101783.91;5034242;28;20040;-69
2024/01/21 05:07:44;;;;;;;63.00;31.67;;;;;;;-8.14;73.36;101782.50;5034177;28;20415;-69
2024/01/21 05:11:06;;;;;;;38.20;20.07;;;;;;;-8.18;73.05;101784.91;5038342;28;20099;-69
2024/01/21 05:14:24;;;;;;;36.23;19.53;;;;;;;-8.19;74.09;101775.56;5040772;28;20064;-69
2024/01/21 05:17:35;;;;;;;39.07;20.63;;;;;;;-8.05;74.28;101786.31;5034161;28;20133;-69
2024/01/21 05:20:49;;;;;;;42.50;20.60;;;;;;;-8.00;74.02;101791.59;5041530;28;20052;-68
2024/01/21 05:24:01;;;;;;;37.60;21.87;;;;;;;-8.06;73.97;101796.41;5033799;28;20102;-68
2024/01/21 05:27:08;;;;;;;37.37;21.37;;;;;;;-7.97;73.62;101791.72;5033749;28;20076;-68
2024/01/21 05:30:21;;;;;;;40.27;20.43;;;;;;;-7.86;74.46;101764.25;5033665;28;20126;-68
2024/01/21 05:33:30;;;;;;;35.27;20.87;;;;;;;-7.86;74.12;101775.28;5033615;28;20506;-68
2024/01/21 05:36:42;;;;;;;39.57;20.77;;;;;;;-7.97;74.26;101767.22;5035072;28;20091;-69
2024/01/21 05:39:51;;;;;;;40.87;21.13;;;;;;;-7.91;74.52;101765.72;5043601;28;20048;-68
2024/01/21 05:43:07;;;;;;;44.13;24.53;;;;;;;-7.93;74.72;101760.59;5041603;28;20098;-68
2024/01/21 05:46:20;;;;;;;44.83;22.97;;;;;;;-7.90;74.51;101758.19;5033336;28;20498;-69
2024/01/21 05:49:24;;;;;;;41.42;22.98;;;;;;;-7.89;74.40;101749.75;5032699;28;20104;-69
2024/01/21 05:52:37;;;;;;;40.20;21.67;;;;;;;-8.05;74.66;101758.38;5033225;28;20569;-69
2024/01/21 05:55:46;;;;;;;43.53;21.63;;;;;;;-7.98;75.03;101754.44;5033162;28;20092;-69
2024/01/21 05:58:54;;;;;;;40.27;22.30;;;;;;;-7.96;75.35;101747.75;5033168;28;20625;-69
2024/01/21 06:01:59;;;;;;;46.10;23.70;;;;;;;-7.88;75.69;101741.34;5035617;28;20080;-68
2024/01/21 06:05:13;;;;;;;41.67;22.50;;;;;;;-7.85;75.58;101730.44;5052915;28;20545;-69
2024/01/21 06:08:22;;;;;;;43.93;21.73;;;;;;;-7.83;75.15;101727.16;5052915;28;20113;-69
2024/01/21 06:11:31;;;;;;;43.57;22.13;;;;;;;-7.76;75.33;101716.44;5052057;28;20047;-67
2024/01/21 06:14:53;;;;;;;42.63;22.23;;;;;;;-7.65;74.89;101718.59;5052071;28;20111;-68
2024/01/21 06:18:14;;;;;;;42.67;22.67;;;;;;;-7.65;74.31;101729.59;5051999;28;20497;-67
2024/01/21 06:21:30;;;;;;;43.30;20.87;;;;;;;-7.74;74.88;101729.22;5052752;28;20040;-67
2024/01/21 06:24:48;;;;;;;41.90;23.43;;;;;;;-7.83;75.81;101729.69;5052702;28;20052;-68
2024/01/21 06:28:16;;;;;;;42.17;21.50;;;;;;;-7.77;75.63;101714.72;5052924;28;20110;-67
2024/01/21 06:31:44;;;;;;;42.13;22.40;;;;;;;-7.72;75.21;101715.78;5052555;28;20515;-67
2024/01/21 06:35:16;;;;;;;45.93;24.17;;;;;;;-7.66;74.91;101705.00;5052594;28;20106;-67
2024/01/21 06:38:48;;;;;;;46.57;23.60;;;;;;;-7.72;74.54;101713.25;5044839;28;20158;-68
2024/01/21 06:42:16;;;;;;;46.23;24.50;;;;;;;-7.73;74.34;101713.16;5052868;28;20118;-68
2024/01/21 06:45:41;;;;;;;45.73;23.20;;;;;;;-7.88;74.33;101718.50;5052461;28;20098;-68
2024/01/21 06:49:12;;;;;;;47.03;24.23;;;;;;;-7.87;74.63;101722.75;5052451;28;20417;-68
2024/01/21 06:52:26;;;;;;;50.67;26.37;;;;;;;-7.71;74.89;101724.28;5052499;28;20417;-68
2024/01/21 06:55:54;;;;;;;63.37;30.57;;;;;;;-7.68;74.57;101724.41;5052324;28;20135;-68
2024/01/21 06:59:12;;;;;;;48.50;27.60;;;;;;;-7.81;75.10;101722.16;5043411;28;20418;-68
2024/01/21 07:02:26;;;;;;;49.47;24.90;;;;;;;-7.71;75.18;101724.28;5034143;28;20107;-68
2024/01/21 07:05:44;;;;;;;67.37;34.10;;;;;;;-7.58;74.95;101721.41;5036457;28;20138;-68
2024/01/21 07:08:58;;;;;;;59.93;31.63;;;;;;;-7.51;74.58;101713.22;5036316;28;20049;-68
2024/01/21 07:12:22;;;;;;;46.37;24.53;;;;;;;-7.64;75.44;101720.31;5036601;28;20061;-68
2024/01/21 07:15:37;;;;;;;49.87;25.23;;;;;;;-7.68;74.50;101718.47;5036259;28;20120;-68
2024/01/21 07:18:49;;;;;;;48.73;23.87;;;;;;;-7.65;74.59;101698.25;5036373;28;20087;-69
2024/01/21 07:22:01;;;;;;;48.80;25.90;;;;;;;-7.65;74.78;101695.72;5036144;28;20056;-69
2024/01/21 07:25:05;;;;;;;49.03;24.80;;;;;;;-7.58;74.32;101705.31;5036049;28;20420;-68
2024/01/21 07:28:12;;;;;;;48.27;26.07;;;;;;;-7.62;74.66;101733.94;5052992;28;20601;-68
2024/01/21 07:31:29;;;;;;;48.20;24.30;;;;;;;-7.78;75.01;101733.31;5053906;28;20099;-68
2024/01/21 07:34:36;;;;;;;49.87;24.47;;;;;;;-7.76;76.07;101728.28;5053098;28;20718;-66
2024/01/21 07:37:46;;;;;;;47.80;24.30;;;;;;;-7.78;75.40;101735.84;5053998;28;20048;-67
2024/01/21 07:41:01;;;;;;;51.97;26.27;;;;;;;-7.52;75.98;101741.13;5052996;28;20143;-68
2024/01/21 07:44:14;;;;;;;46.30;24.80;;;;;;;-7.61;75.52;101741.63;5052989;28;20059;-67
2024/01/21 07:47:21;;;;;;;52.53;28.90;;;;;;;-7.59;75.65;101736.63;5053704;28;20115;-68
2024/01/21 07:50:26;;;;;;;46.13;24.63;;;;;;;-7.57;75.98;101737.53;5055551;28;20087;-68
2024/01/21 07:53:30;;;;;;;48.90;24.13;;;;;;;-7.37;75.91;101731.59;5055236;28;20513;-67
2024/01/21 07:56:33;;;;;;;49.72;25.85;;;;;;;-7.26;75.48;101740.50;5055761;28;20525;-67
2024/01/21 07:59:37;;;;;;;50.10;25.70;;;;;;;-7.21;75.08;101737.25;5055355;28;20453;-70
2024/01/21 08:02:42;;;;;;;45.10;23.93;;;;;;;-7.09;74.92;101730.13;5055323;28;20043;-68
2024/01/21 08:05:46;;;;;;;48.63;24.80;;;;;;;-7.04;75.02;101731.16;5055240;28;20040;-73
2024/01/21 08:08:50;;;;;;;;;;;;;;;-7.08;74.02;101731.88;5055550;28;20064;-68
2024/01/21 08:11:55;;;;;;;48.37;24.13;;;;;;;-7.13;74.84;101723.19;5055104;28;20397;-67
2024/01/21 08:15:02;;;;;;;50.00;24.67;;;;;;;-7.22;75.12;101731.31;5036811;28;20048;-68
2024/01/21 08:18:06;;;;;;;50.27;25.90;;;;;;;-7.14;75.30;101724.00;5074167;28;20461;-68
2024/01/21 08:21:10;;;;;;;49.83;25.83;;;;;;;-7.11;75.46;101730.06;5034840;28;20057;-68
2024/01/21 08:24:14;;;;;;;51.67;26.70;;;;;;;-7.01;75.05;101736.38;5048975;28;20047;-68
2024/01/21 08:27:18;;;;;;;49.27;25.60;;;;;;;-6.93;74.98;101724.81;5054483;28;20502;-69
2024/01/21 08:30:22;;;;;;;47.17;25.17;;;;;;;-7.32;75.58;101727.53;5054447;28;20109;-70
2024/01/21 08:33:27;;;;;;;51.33;26.93;;;;;;;-7.29;75.61;101740.38;5040749;28;20503;-68
2024/01/21 08:36:32;;;;;;;56.90;28.77;;;;;;;-7.73;77.77;101746.19;5045241;28;20052;-70
2024/01/21 08:39:37;;;;;;;56.77;30.20;;;;;;;-7.43;78.67;101733.88;5052084;28;20105;-71
2024/01/21 08:42:42;;;;;;;57.37;29.87;;;;;;;-7.07;78.07;101738.69;5054152;28;20552;-69
2024/01/21 08:45:46;;;;;;;56.77;29.20;;;;;;;-7.05;77.49;101725.22;5047743;28;20044;-69
2024/01/21 08:48:50;;;;;;;56.30;27.95;;;;;;;-6.88;76.57;101713.16;5053154;28;20397;-70
2024/01/21 08:51:55;;;;;;;49.70;27.57;;;;;;;-6.84;76.84;101717.53;5053516;28;20521;-66
2024/01/21 08:55:02;;;;;;;58.10;29.30;;;;;;;-6.79;76.82;101700.78;5050757;28;20068;-67
2024/01/21 08:58:07;;;;;;;59.83;30.00;;;;;;;-6.56;77.11;101700.75;5057358;28;20076;-70
2024/01/21 09:01:20;;;;;;;58.75;29.60;;;;;;;-6.53;76.52;101703.41;5042729;28;20045;-68
2024/01/21 09:04:25;;;;;;;49.25;24.17;;;;;;;-6.53;76.48;101711.03;5032397;28;20064;-67
2024/01/21 09:07:29;;;;;;;73.05;35.08;;;;;;;-6.56;77.30;101728.75;5032779;28;20079;-68
2024/01/21 09:10:35;;;;;;;88.13;36.63;;;;;;;-6.48;77.08;101741.72;5032751;28;20462;-69
2024/01/21 09:13:39;;;;;;;68.43;32.60;;;;;;;-6.43;76.73;101768.22;5034261;28;20048;-67
2024/01/21 09:16:47;;;;;;;145.23;55.47;;;;;;;-6.34;77.23;101769.41;5034249;28;20564;-67
2024/01/21 09:19:52;;;;;;;246.25;90.20;;;;;;;-6.36;77.17;101791.41;5033870;28;20040;-67
2024/01/21 09:22:56;;;;;;;70.22;35.35;;;;;;;-6.42;78.25;101791.16;5033818;28;20071;-64
2024/01/21 09:26:00;;;;;;;58.67;28.88;;;;;;;-6.24;77.11;101806.25;5033041;28;20056;-66
2024/01/21 09:29:06;;;;;;;58.42;30.50;;;;;;;-6.22;76.95;101791.91;5033683;28;20095;-67
2024/01/21 09:32:11;;;;;;;71.65;38.22;;;;;;;-6.33;78.38;101795.75;5033620;28;20044;-66
2024/01/21 09:35:20;;;;;;;71.32;36.70;;;;;;;-6.20;77.55;101809.78;5042548;28;20051;-67
2024/01/21 09:38:24;;;;;;;54.65;29.45;;;;;;;-6.23;78.38;101807.13;5039751;28;20052;-68
2024/01/21 09:41:51;;;;;;;57.22;30.23;;;;;;;-6.01;76.84;101796.91;5031663;28;20037;-67
2024/01/21 09:44:55;;;;;;;53.45;28.52;;;;;;;-5.89;77.16;101824.47;5031217;28;20072;-67
2024/01/21 09:48:00;;;;;;;48.50;26.77;;;;;;;-5.79;76.79;101833.28;5032989;28;20054;-67
2024/01/21 09:51:05;;;;;;;48.17;26.48;;;;;;;-5.65;76.06;101843.16;5032320;28;20052;-67
2024/01/21 09:54:10;;;;;;;46.25;27.45;;;;;;;-5.48;75.51;101828.44;5032359;28;20095;-67
2024/01/21 09:57:14;;;;;;;49.33;25.92;;;;;;;-5.42;74.92;101812.50;5033014;28;20064;-66
2024/01/21 10:00:20;;;;;;;44.70;25.45;;;;;;;-5.52;75.62;101787.50;5032282;28;20044;-66
2024/01/21 10:03:24;;;;;;;42.33;25.15;;;;;;;-5.44;76.50;101756.34;5033167;28;20067;-67
2024/01/21 10:06:28;;;;;;;44.63;25.38;;;;;;;-5.37;76.69;101737.88;5032249;28;20059;-67
2024/01/21 10:09:32;;;;;;;47.53;25.13;;;;;;;-5.24;75.48;101706.00;5031117;28;20457;-64
2024/01/21 10:12:35;;;;;;;51.33;28.23;;;;;;;-5.69;77.61;101766.56;5031437;28;20569;-65
2024/01/21 10:15:39;;;;;;;84.40;43.65;;;;;;;-5.42;76.98;101747.09;5032280;28;20053;-66
2024/01/21 10:18:47;;;;;;;54.70;31.42;;;;;;;-5.26;76.75;101747.59;5032009;28;20522;-66
2024/01/21 10:22:06;;;;;;;52.67;30.10;;;;;;;-5.10;76.32;101780.41;5031973;28;20095;-66
2024/01/21 10:25:15;;;;;;;58.55;30.63;;;;;;;-5.77;79.28;101775.63;5031915;28;20060;-66
2024/01/21 10:28:22;;;;;;;49.35;28.90;;;;;;;-5.40;79.11;101765.81;5031679;28;20470;-66
2024/01/21 10:31:27;;;;;;;53.85;29.30;;;;;;;-5.07;79.13;101772.84;5031503;28;20095;-66
2024/01/21 10:34:35;;;;;;;52.42;27.55;;;;;;;-5.04;78.15;101767.84;5030932;28;20041;-66
2024/01/21 10:37:44;;;;;;;51.47;29.67;;;;;;;-5.16;78.15;101772.56;5031642;28;20513;-67
2024/01/21 10:40:48;;;;;;;59.95;34.70;;;;;;;-4.81;77.82;101763.44;5031628;28;20044;-66
2024/01/21 10:43:55;;;;;;;49.80;28.00;;;;;;;-4.68;77.33;101731.50;5031919;28;20056;-67
2024/01/21 10:47:01;;;;;;;51.08;28.67;;;;;;;-4.64;77.55;101728.22;5031711;28;20053;-67
2024/01/21 10:50:10;;;;;;;47.58;26.85;;;;;;;-4.38;77.98;101734.06;5053561;28;20457;-67
2024/01/21 10:53:17;;;;;;;46.97;27.33;;;;;;;-4.20;77.37;101708.16;5030972;28;20056;-65
2024/01/21 10:56:26;;;;;;;48.47;26.20;;;;;;;-3.88;77.09;101696.25;5031442;28;20422;-66
2024/01/21 10:59:31;;;;;;;44.92;26.45;;;;;;;-3.78;76.69;101717.78;5030277;28;20091;-66
2024/01/21 11:02:36;;;;;;;48.13;27.65;;;;;;;-3.93;76.93;101709.72;5031210;28;20095;-67
2024/01/21 11:05:40;;;;;;;46.40;28.00;;;;;;;-3.62;77.50;101696.88;5031515;28;20114;-66
2024/01/21 11:08:44;;;;;;;47.15;27.88;;;;;;;-3.79;78.27;101698.16;5031236;28;20510;-66
2024/01/21 11:11:51;;;;;;;45.38;27.20;;;;;;;-3.58;78.07;101724.25;5031262;28;20139;-66
2024/01/21 11:15:27;;;;;;;44.97;27.38;;;;;;;-3.42;77.89;101709.28;5031565;28;20049;-67
2024/01/21 11:18:43;;;;;;;46.40;26.75;;;;;;;-3.08;77.42;101701.56;5031487;28;20047;-67
2024/01/21 11:21:48;;;;;;;43.53;26.58;;;;;;;-3.10;77.58;101700.66;5031826;28;20530;-66
2024/01/21 11:24:59;;;;;;;47.50;26.95;;;;;;;-3.09;77.73;101701.53;5031504;28;20092;-67
2024/01/21 11:28:27;;;;;;;42.50;24.73;;;;;;;-2.75;76.45;101707.38;5031365;28;20412;-66
2024/01/21 11:31:32;;;;;;;44.55;27.63;;;;;;;-2.65;76.52;101699.94;5031456;28;20083;-67
2024/01/21 11:34:41;;;;;;;48.25;26.33;;;;;;;-2.59;77.62;101705.16;5031178;28;20128;-67
2024/01/21 11:37:45;;;;;;;40.75;25.90;;;;;;;-2.34;77.82;101692.84;5029907;28;20052;-66
2024/01/21 11:41:02;;;;;;;40.83;25.58;;;;;;;-2.16;78.10;101690.66;5030880;28;20387;-67
2024/01/21 11:44:13;;;;;;;43.42;27.13;;;;;;;-2.02;77.72;101700.28;5031231;28;20140;-68
2024/01/21 11:47:17;;;;;;;43.42;26.92;;;;;;;-2.15;78.48;101682.09;5031218;28;20051;-67
2024/01/21 11:50:21;;;;;;;42.97;25.42;;;;;;;-2.38;79.89;101689.38;5044798;28;20048;-67
2024/01/21 11:53:28;;;;;;;45.72;28.65;;;;;;;-2.30;80.32;101684.38;5034701;28;20079;-66
2024/01/21 11:56:31;;;;;;;44.22;27.92;;;;;;;-2.11;80.47;101685.59;5034173;28;20419;-66
2024/01/21 11:59:35;;;;;;;32.35;20.45;;;;;;;-1.87;79.41;101677.47;5034096;28;20075;-66
2024/01/21 12:02:39;;;;;;;43.22;26.77;;;;;;;-1.79;78.27;101681.03;5033136;28;20083;-67
2024/01/21 12:05:43;;;;;;;41.05;25.65;;;;;;;-1.77;78.08;101673.38;5034068;28;20130;-67
2024/01/21 12:08:47;;;;;;;43.28;26.13;;;;;;;-1.87;78.24;101677.47;5034351;28;20127;-67
2024/01/21 12:11:54;;;;;;;42.88;27.88;;;;;;;-1.73;78.36;101681.13;5034065;28;20147;-65
2024/01/21 12:15:00;;;;;;;39.58;26.83;;;;;;;-1.51;79.18;101672.09;5034008;28;20059;-67
2024/01/21 12:18:04;;;;;;;45.97;26.75;;;;;;;-1.44;79.84;101667.91;5047910;28;20055;-67
2024/01/21 12:21:12;;;;;;;41.15;27.27;;;;;;;-1.54;81.30;101661.78;5053511;28;20055;-67
2024/01/21 12:24:16;;;;;;;45.75;26.67;;;;;;;-1.34;80.99;101658.63;5053561;28;20461;-67
2024/01/21 12:27:20;;;;;;;42.70;28.17;;;;;;;-1.41;81.07;101655.97;5053802;28;20094;-67
2024/01/21 12:30:25;;;;;;;40.85;27.08;;;;;;;-1.71;84.62;101658.09;5053230;28;20091;-67
2024/01/21 12:33:29;;;;;;;45.05;29.13;;;;;;;-1.36;83.31;101653.50;5053719;28;20072;-66
2024/01/21 12:36:34;;;;;;;41.42;27.13;;;;;;;-1.20;81.78;101655.44;5053287;28;20055;-66
2024/01/21 12:39:39;;;;;;;43.88;28.67;;;;;;;-1.16;81.60;101643.50;5053584;28;20127;-67
2024/01/21 12:42:43;;;;;;;43.33;27.67;;;;;;;-1.08;81.91;101635.94;5053313;28;20151;-66
2024/01/21 12:45:50;;;;;;;52.92;28.40;;;;;;;-1.06;82.89;101634.22;5053071;28;20056;-66
2024/01/21 12:48:54;;;;;;;38.95;25.17;;;;;;;-0.98;83.68;101627.50;5053370;28;20094;-66
2024/01/21 12:51:58;;;;;;;41.38;27.15;;;;;;;-0.96;83.27;101619.00;5052610;28;20513;-67
2024/01/21 12:55:06;;;;;;;43.92;28.63;;;;;;;-0.75;83.37;101622.66;5052750;28;20060;-68
2024/01/21 12:58:12;;;;;;;44.63;28.45;;;;;;;-0.68;83.04;101610.72;5051906;28;20556;-67
2024/01/21 13:01:16;;;;;;;40.70;26.73;;;;;;;-0.53;82.73;101616.06;5052218;28;20165;-67
2024/01/21 13:04:21;;;;;;;43.72;27.13;;;;;;;-0.51;81.73;101604.94;5052943;28;20085;-68
2024/01/21 13:07:25;;;;;;;41.42;26.98;;;;;;;-0.51;81.87;101599.81;5052830;28;20075;-67
2024/01/21 13:10:31;;;;;;;39.47;27.15;;;;;;;-0.27;81.97;101580.31;5052383;28;20082;-66
2024/01/21 13:13:35;;;;;;;41.25;26.95;;;;;;;-0.18;81.69;101582.13;5051819;28;20090;-67
2024/01/21 13:16:39;;;;;;;42.03;26.75;;;;;;;-0.07;81.87;101570.22;5049906;28;20453;-66
2024/01/21 13:19:42;;;;;;;41.10;26.60;;;;;;;0.13;80.90;101560.97;5051809;28;20059;-68
2024/01/21 13:22:45;;;;;;;;;;;;;;;0.21;81.05;101556.72;5050946;28;20132;-68
2024/01/21 13:25:49;;;;;;;39.87;27.17;;;;;;;0.22;81.71;101555.00;5051369;28;19919;-66
2024/01/21 13:32:16;;;;;;;43.53;28.30;;;;;;;0.16;81.78;101560.09;5052322;28;20115;-69
2024/01/21 13:35:37;;;;;;;44.42;28.77;;;;;;;-0.13;82.74;101562.44;5052152;28;20159;-64
2024/01/21 13:39:07;;;;;;;41.70;27.13;;;;;;;-0.09;83.49;101559.06;5052090;28;20051;-64
2024/01/21 13:42:27;;;;;;;37.22;25.80;;;;;;;0.19;82.22;101568.72;5052224;28;20092;-64
2024/01/21 13:45:53;;;;;;;38.78;27.20;;;;;;;0.09;81.65;101576.34;5052059;28;20095;-63
2024/01/21 13:49:23;;;;;;;42.00;27.15;;;;;;;0.13;82.11;101589.25;5051871;28;20217;-63
2024/01/21 13:52:47;;;;;;;39.25;27.45;;;;;;;0.21;81.26;101589.28;5051819;28;20055;-63
2024/01/21 13:56:06;;;;;;;42.13;28.90;;;;;;;-0.05;82.20;101589.09;5052710;28;20133;-67
2024/01/21 13:59:37;;;;;;;44.90;27.33;;;;;;;-0.03;82.99;101582.25;5051852;28;20047;-64
2024/01/21 14:02:55;;;;;;;44.58;29.15;;;;;;;0.01;83.94;101571.16;5051674;28;20055;-65
2024/01/21 14:06:18;;;;;;;42.35;27.85;;;;;;;-0.05;84.15;101581.38;5051916;28;20040;-69
2024/01/21 14:09:27;;;;;;;47.25;29.63;;;;;;;-0.11;84.72;101581.31;5051819;28;20068;-66
2024/01/21 14:12:36;;;;;;;47.33;29.83;;;;;;;-0.05;84.17;101579.66;5051888;28;20051;-67
2024/01/21 14:15:43;;;;;;;47.30;29.70;;;;;;;-0.09;85.20;101577.06;5051537;28;20079;-67
2024/01/21 14:18:49;;;;;;;43.65;30.27;;;;;;;-0.13;85.92;101575.28;5051534;28;20043;-64
2024/01/21 14:21:56;;;;;;;45.30;29.45;;;;;;;-0.16;85.78;101595.84;5051802;28;20044;-65
2024/01/21 14:25:13;;;;;;;45.00;28.77;;;;;;;-0.27;86.38;101606.88;5051327;28;20363;-65
2024/01/21 14:28:38;;;;;;;;;;;;;;;-0.22;86.14;101624.06;5052071;28;20091;-66
2024/01/21 14:31:44;;;;;;;42.97;28.55;;;;;;;-0.28;87.17;101630.88;5051456;28;19979;-64
2024/01/21 14:34:48;;;;;;;40.47;27.05;;;;;;;-0.34;87.56;101612.81;5051766;28;20098;-66
2024/01/21 14:37:51;;;;;;;;;;;;;;;-0.33;87.27;101616.25;5051149;28;20098;-64
2024/01/21 14:40:57;;;;;;;42.83;28.85;;;;;;;-0.23;85.84;101605.19;5051240;28;19939;-66
2024/01/21 14:44:07;;;;;;;46.33;27.70;;;;;;;-0.33;85.65;101616.25;5051684;28;20120;-66